sensor_id;sensor_type;location;lat;lon;timestamp;P1;durP1;ratioP1;P2;durP2;ratioP2
14603;SDS011;7388;51.078;13.740;2023-01-30T00:01:31;9.80;;;7.70;;
14603;SDS011;7388;51.078;13.740;2023-01-30T00:03:58;12.02;;;9.07;;
14603;SDS011;7388;51.078;13.740;2023-01-30T00:06:24;11.43;;;7.70;;
14603;SDS011;7388;51.078;13.740;2023-01-30T00:08:50;16.23;;;10.88;;
14603;SDS011;7388;51.078;13.740;2023-01-30T00:11:17;14.77;;;9.25;;
14603;SDS011;7388;51.078;13.740;2023-01-30T00:13:44;12.00;;;8.85;;
14603;SDS011;7388;51.078;13.740;2023-01-30T00:16:11;10.95;;;7.85;;
14603;SDS011;7388;51.078;13.740;2023-01-30T00:18:38;13.43;;;8.73;;
14603;SDS011;7388;51.078;13.740;2023-01-30T00:21:05;14.77;;;8.70;;
14603;SDS011;7388;51.078;13.740;2023-01-30T00:23:32;9.57;;;7.45;;
14603;SDS011;7388;51.078;13.740;2023-01-30T00:25:59;12.52;;;7.88;;
14603;SDS011;7388;51.078;13.740;2023-01-30T00:28:25;16.40;;;7.83;;
14603;SDS011;7388;51.078;13.740;2023-01-30T00:30:51;12.33;;;7.70;;
14603;SDS011;7388;51.078;13.740;2023-01-30T00:33:18;9.50;;;7.35;;
14603;SDS011;7388;51.078;13.740;2023-01-30T00:35:45;14.05;;;7.55;;
14603;SDS011;7388;51.078;13.740;2023-01-30T00:38:13;11.93;;;9.18;;
14603;SDS011;7388;51.078;13.740;2023-01-30T00:40:40;12.52;;;8.15;;
14603;SDS011;7388;51.078;13.740;2023-01-30T00:43:06;10.75;;;8.10;;
14603;SDS011;7388;51.078;13.740;2023-01-30T00:45:53;21.15;;;8.52;;
14603;SDS011;7388;51.078;13.740;2023-01-30T00:48:37;10.07;;;7.65;;
14603;SDS011;7388;51.078;13.740;2023-01-30T00:51:03;12.70;;;8.20;;
14603;SDS011;7388;51.078;13.740;2023-01-30T00:53:29;13.35;;;8.68;;
14603;SDS011;7388;51.078;13.740;2023-01-30T00:55:55;11.70;;;8.20;;
14603;SDS011;7388;51.078;13.740;2023-01-30T00:58:21;11.50;;;9.43;;
14603;SDS011;7388;51.078;13.740;2023-01-30T01:00:48;12.43;;;8.85;;
14603;SDS011;7388;51.078;13.740;2023-01-30T01:03:14;11.98;;;8.15;;
14603;SDS011;7388;51.078;13.740;2023-01-30T01:05:39;13.17;;;9.40;;
14603;SDS011;7388;51.078;13.740;2023-01-30T01:08:06;11.40;;;9.30;;
14603;SDS011;7388;51.078;13.740;2023-01-30T01:10:32;12.90;;;7.40;;
14603;SDS011;7388;51.078;13.740;2023-01-30T01:12:57;13.70;;;8.07;;
14603;SDS011;7388;51.078;13.740;2023-01-30T01:15:23;11.70;;;8.10;;
14603;SDS011;7388;51.078;13.740;2023-01-30T01:17:51;13.68;;;8.50;;
14603;SDS011;7388;51.078;13.740;2023-01-30T01:20:18;12.75;;;8.77;;
14603;SDS011;7388;51.078;13.740;2023-01-30T01:22:44;11.63;;;8.20;;
14603;SDS011;7388;51.078;13.740;2023-01-30T01:25:13;11.40;;;8.13;;
14603;SDS011;7388;51.078;13.740;2023-01-30T01:27:39;10.13;;;7.90;;
14603;SDS011;7388;51.078;13.740;2023-01-30T01:30:05;12.13;;;9.00;;
14603;SDS011;7388;51.078;13.740;2023-01-30T01:32:32;13.38;;;8.18;;
14603;SDS011;7388;51.078;13.740;2023-01-30T01:34:58;9.55;;;6.90;;
14603;SDS011;7388;51.078;13.740;2023-01-30T01:37:23;12.43;;;8.57;;
14603;SDS011;7388;51.078;13.740;2023-01-30T01:39:49;13.17;;;8.27;;
14603;SDS011;7388;51.078;13.740;2023-01-30T01:42:35;12.20;;;8.43;;
14603;SDS011;7388;51.078;13.740;2023-01-30T01:47:33;11.77;;;8.00;;
14603;SDS011;7388;51.078;13.740;2023-01-30T01:50:00;12.32;;;9.10;;
14603;SDS011;7388;51.078;13.740;2023-01-30T01:52:26;10.35;;;7.13;;
14603;SDS011;7388;51.078;13.740;2023-01-30T01:54:54;13.02;;;8.80;;
14603;SDS011;7388;51.078;13.740;2023-01-30T01:57:26;13.18;;;8.60;;
14603;SDS011;7388;51.078;13.740;2023-01-30T02:00:07;10.65;;;8.43;;
14603;SDS011;7388;51.078;13.740;2023-01-30T02:02:37;10.02;;;7.05;;
14603;SDS011;7388;51.078;13.740;2023-01-30T02:05:06;12.23;;;8.02;;
14603;SDS011;7388;51.078;13.740;2023-01-30T02:10:08;12.63;;;8.93;;
14603;SDS011;7388;51.078;13.740;2023-01-30T02:12:39;13.07;;;7.55;;
14603;SDS011;7388;51.078;13.740;2023-01-30T02:15:06;12.45;;;7.47;;
14603;SDS011;7388;51.078;13.740;2023-01-30T02:17:32;13.80;;;7.57;;
14603;SDS011;7388;51.078;13.740;2023-01-30T02:31:31;11.45;;;7.57;;
14603;SDS011;7388;51.078;13.740;2023-01-30T02:44:49;11.38;;;8.10;;
14603;SDS011;7388;51.078;13.740;2023-01-30T02:47:31;14.00;;;8.95;;
14603;SDS011;7388;51.078;13.740;2023-01-30T02:50:04;10.25;;;7.40;;
14603;SDS011;7388;51.078;13.740;2023-01-30T02:52:39;12.23;;;7.38;;
14603;SDS011;7388;51.078;13.740;2023-01-30T02:55:16;13.00;;;9.38;;
14603;SDS011;7388;51.078;13.740;2023-01-30T02:57:47;11.05;;;7.88;;
14603;SDS011;7388;51.078;13.740;2023-01-30T03:00:13;13.30;;;9.07;;
14603;SDS011;7388;51.078;13.740;2023-01-30T03:11:27;10.00;;;7.43;;
14603;SDS011;7388;51.078;13.740;2023-01-30T03:16:40;12.20;;;7.40;;
14603;SDS011;7388;51.078;13.740;2023-01-30T03:19:08;11.73;;;7.55;;
14603;SDS011;7388;51.078;13.740;2023-01-30T03:21:43;9.60;;;6.55;;
14603;SDS011;7388;51.078;13.740;2023-01-30T03:24:09;9.63;;;7.07;;
14603;SDS011;7388;51.078;13.740;2023-01-30T03:26:36;11.07;;;7.97;;
14603;SDS011;7388;51.078;13.740;2023-01-30T03:29:14;8.02;;;5.85;;
14603;SDS011;7388;51.078;13.740;2023-01-30T03:31:40;8.10;;;6.17;;
14603;SDS011;7388;51.078;13.740;2023-01-30T03:34:06;9.50;;;7.23;;
14603;SDS011;7388;51.078;13.740;2023-01-30T03:36:31;8.67;;;6.70;;
14603;SDS011;7388;51.078;13.740;2023-01-30T03:38:57;12.13;;;7.27;;
14603;SDS011;7388;51.078;13.740;2023-01-30T03:41:23;12.60;;;7.90;;
14603;SDS011;7388;51.078;13.740;2023-01-30T03:43:49;8.37;;;6.37;;
14603;SDS011;7388;51.078;13.740;2023-01-30T03:46:14;11.23;;;6.00;;
14603;SDS011;7388;51.078;13.740;2023-01-30T03:48:40;8.23;;;6.47;;
14603;SDS011;7388;51.078;13.740;2023-01-30T03:51:06;10.47;;;7.20;;
14603;SDS011;7388;51.078;13.740;2023-01-30T03:53:32;8.97;;;6.63;;
14603;SDS011;7388;51.078;13.740;2023-01-30T03:55:57;10.37;;;6.33;;
14603;SDS011;7388;51.078;13.740;2023-01-30T03:58:23;8.23;;;6.33;;
14603;SDS011;7388;51.078;13.740;2023-01-30T04:00:49;8.23;;;6.40;;
14603;SDS011;7388;51.078;13.740;2023-01-30T04:03:14;9.17;;;6.40;;
14603;SDS011;7388;51.078;13.740;2023-01-30T04:05:43;7.93;;;6.10;;
14603;SDS011;7388;51.078;13.740;2023-01-30T04:08:09;14.02;;;8.18;;
14603;SDS011;7388;51.078;13.740;2023-01-30T04:10:35;9.52;;;8.05;;
14603;SDS011;7388;51.078;13.740;2023-01-30T04:13:00;11.50;;;8.47;;
14603;SDS011;7388;51.078;13.740;2023-01-30T04:15:26;10.27;;;6.80;;
14603;SDS011;7388;51.078;13.740;2023-01-30T04:17:52;9.77;;;6.97;;
14603;SDS011;7388;51.078;13.740;2023-01-30T04:20:17;9.63;;;6.20;;
14603;SDS011;7388;51.078;13.740;2023-01-30T04:22:44;12.15;;;7.15;;
14603;SDS011;7388;51.078;13.740;2023-01-30T04:25:10;12.73;;;8.00;;
14603;SDS011;7388;51.078;13.740;2023-01-30T04:27:36;9.63;;;6.67;;
14603;SDS011;7388;51.078;13.740;2023-01-30T04:30:02;8.80;;;6.20;;
14603;SDS011;7388;51.078;13.740;2023-01-30T04:32:28;9.65;;;6.95;;
14603;SDS011;7388;51.078;13.740;2023-01-30T04:34:54;11.83;;;7.43;;
14603;SDS011;7388;51.078;13.740;2023-01-30T04:37:20;11.83;;;6.80;;
14603;SDS011;7388;51.078;13.740;2023-01-30T04:39:45;11.77;;;6.87;;
14603;SDS011;7388;51.078;13.740;2023-01-30T04:42:11;10.23;;;7.13;;
14603;SDS011;7388;51.078;13.740;2023-01-30T04:44:37;10.47;;;6.60;;
14603;SDS011;7388;51.078;13.740;2023-01-30T04:47:02;10.13;;;6.70;;
14603;SDS011;7388;51.078;13.740;2023-01-30T04:49:28;11.43;;;7.40;;
14603;SDS011;7388;51.078;13.740;2023-01-30T04:51:54;10.20;;;6.97;;
14603;SDS011;7388;51.078;13.740;2023-01-30T04:54:20;13.30;;;8.27;;
14603;SDS011;7388;51.078;13.740;2023-01-30T04:56:45;8.83;;;7.00;;
14603;SDS011;7388;51.078;13.740;2023-01-30T04:59:11;9.30;;;6.80;;
14603;SDS011;7388;51.078;13.740;2023-01-30T05:01:37;10.07;;;6.33;;
14603;SDS011;7388;51.078;13.740;2023-01-30T05:04:04;12.50;;;8.13;;
14603;SDS011;7388;51.078;13.740;2023-01-30T05:06:31;13.27;;;7.15;;
14603;SDS011;7388;51.078;13.740;2023-01-30T05:08:59;10.75;;;7.45;;
14603;SDS011;7388;51.078;13.740;2023-01-30T05:11:25;10.98;;;7.05;;
14603;SDS011;7388;51.078;13.740;2023-01-30T05:13:52;9.35;;;6.22;;
14603;SDS011;7388;51.078;13.740;2023-01-30T05:16:19;9.60;;;7.37;;
14603;SDS011;7388;51.078;13.740;2023-01-30T05:18:45;10.48;;;6.72;;
14603;SDS011;7388;51.078;13.740;2023-01-30T05:21:12;11.90;;;7.10;;
14603;SDS011;7388;51.078;13.740;2023-01-30T05:23:40;12.75;;;6.97;;
14603;SDS011;7388;51.078;13.740;2023-01-30T05:26:06;11.75;;;8.00;;
14603;SDS011;7388;51.078;13.740;2023-01-30T05:28:33;9.55;;;6.78;;
14603;SDS011;7388;51.078;13.740;2023-01-30T05:31:03;10.10;;;6.90;;
14603;SDS011;7388;51.078;13.740;2023-01-30T05:33:31;11.38;;;7.00;;
14603;SDS011;7388;51.078;13.740;2023-01-30T05:35:57;16.10;;;7.05;;
14603;SDS011;7388;51.078;13.740;2023-01-30T05:38:23;16.10;;;7.85;;
14603;SDS011;7388;51.078;13.740;2023-01-30T05:41:06;9.95;;;6.80;;
14603;SDS011;7388;51.078;13.740;2023-01-30T05:43:33;9.68;;;7.15;;
14603;SDS011;7388;51.078;13.740;2023-01-30T05:46:00;12.00;;;8.52;;
14603;SDS011;7388;51.078;13.740;2023-01-30T05:48:27;11.10;;;7.15;;
14603;SDS011;7388;51.078;13.740;2023-01-30T05:50:54;9.80;;;7.07;;
14603;SDS011;7388;51.078;13.740;2023-01-30T05:53:22;12.02;;;7.43;;
14603;SDS011;7388;51.078;13.740;2023-01-30T05:55:58;10.70;;;7.28;;
14603;SDS011;7388;51.078;13.740;2023-01-30T05:58:26;10.85;;;6.95;;
14603;SDS011;7388;51.078;13.740;2023-01-30T06:00:53;9.63;;;7.13;;
14603;SDS011;7388;51.078;13.740;2023-01-30T06:03:19;9.67;;;6.87;;
14603;SDS011;7388;51.078;13.740;2023-01-30T06:05:44;9.70;;;6.73;;
14603;SDS011;7388;51.078;13.740;2023-01-30T06:08:10;9.60;;;6.53;;
14603;SDS011;7388;51.078;13.740;2023-01-30T06:10:36;10.20;;;6.60;;
14603;SDS011;7388;51.078;13.740;2023-01-30T06:13:02;15.70;;;8.70;;
14603;SDS011;7388;51.078;13.740;2023-01-30T06:15:28;7.77;;;6.40;;
14603;SDS011;7388;51.078;13.740;2023-01-30T06:17:54;9.30;;;7.50;;
14603;SDS011;7388;51.078;13.740;2023-01-30T06:20:20;10.27;;;7.40;;
14603;SDS011;7388;51.078;13.740;2023-01-30T06:22:46;12.82;;;8.27;;
14603;SDS011;7388;51.078;13.740;2023-01-30T06:25:12;12.48;;;7.32;;
14603;SDS011;7388;51.078;13.740;2023-01-30T06:27:38;10.10;;;7.03;;
14603;SDS011;7388;51.078;13.740;2023-01-30T06:30:04;10.63;;;7.50;;
14603;SDS011;7388;51.078;13.740;2023-01-30T06:32:30;8.45;;;6.03;;
14603;SDS011;7388;51.078;13.740;2023-01-30T06:34:56;10.90;;;7.30;;
14603;SDS011;7388;51.078;13.740;2023-01-30T06:37:22;9.70;;;6.80;;
14603;SDS011;7388;51.078;13.740;2023-01-30T06:39:47;9.37;;;6.60;;
14603;SDS011;7388;51.078;13.740;2023-01-30T06:42:13;9.37;;;6.97;;
14603;SDS011;7388;51.078;13.740;2023-01-30T06:44:39;7.13;;;6.43;;
14603;SDS011;7388;51.078;13.740;2023-01-30T06:47:04;9.90;;;7.23;;
14603;SDS011;7388;51.078;13.740;2023-01-30T06:49:30;8.63;;;6.30;;
14603;SDS011;7388;51.078;13.740;2023-01-30T06:51:56;9.37;;;6.67;;
14603;SDS011;7388;51.078;13.740;2023-01-30T06:54:22;9.33;;;6.23;;
14603;SDS011;7388;51.078;13.740;2023-01-30T06:56:47;8.10;;;5.80;;
14603;SDS011;7388;51.078;13.740;2023-01-30T06:59:13;11.10;;;7.40;;
14603;SDS011;7388;51.078;13.740;2023-01-30T07:01:39;8.80;;;6.63;;
14603;SDS011;7388;51.078;13.740;2023-01-30T07:04:05;9.15;;;6.82;;
14603;SDS011;7388;51.078;13.740;2023-01-30T07:06:31;10.00;;;7.20;;
14603;SDS011;7388;51.078;13.740;2023-01-30T07:08:57;8.25;;;5.72;;
14603;SDS011;7388;51.078;13.740;2023-01-30T07:11:23;9.60;;;5.87;;
14603;SDS011;7388;51.078;13.740;2023-01-30T07:13:52;9.32;;;6.10;;
14603;SDS011;7388;51.078;13.740;2023-01-30T07:16:17;12.03;;;6.47;;
14603;SDS011;7388;51.078;13.740;2023-01-30T07:18:43;11.37;;;8.30;;
14603;SDS011;7388;51.078;13.740;2023-01-30T07:21:09;8.88;;;6.72;;
14603;SDS011;7388;51.078;13.740;2023-01-30T07:23:35;9.43;;;6.20;;
14603;SDS011;7388;51.078;13.740;2023-01-30T07:26:04;7.43;;;6.10;;
14603;SDS011;7388;51.078;13.740;2023-01-30T07:28:30;7.10;;;4.93;;
14603;SDS011;7388;51.078;13.740;2023-01-30T07:30:59;9.27;;;7.05;;
14603;SDS011;7388;51.078;13.740;2023-01-30T07:33:25;9.57;;;6.57;;
14603;SDS011;7388;51.078;13.740;2023-01-30T07:35:51;7.23;;;5.67;;
14603;SDS011;7388;51.078;13.740;2023-01-30T07:38:17;8.33;;;5.67;;
14603;SDS011;7388;51.078;13.740;2023-01-30T07:40:43;10.33;;;5.73;;
14603;SDS011;7388;51.078;13.740;2023-01-30T07:43:09;10.33;;;6.00;;
14603;SDS011;7388;51.078;13.740;2023-01-30T07:45:38;6.80;;;4.60;;
14603;SDS011;7388;51.078;13.740;2023-01-30T07:48:05;8.73;;;4.63;;
14603;SDS011;7388;51.078;13.740;2023-01-30T07:50:32;6.95;;;5.55;;
14603;SDS011;7388;51.078;13.740;2023-01-30T07:52:58;10.98;;;5.82;;
14603;SDS011;7388;51.078;13.740;2023-01-30T07:55:26;5.97;;;4.60;;
14603;SDS011;7388;51.078;13.740;2023-01-30T07:57:52;7.23;;;5.00;;
14603;SDS011;7388;51.078;13.740;2023-01-30T08:00:18;7.53;;;4.95;;
14603;SDS011;7388;51.078;13.740;2023-01-30T08:02:44;7.05;;;4.97;;
14603;SDS011;7388;51.078;13.740;2023-01-30T08:05:10;8.37;;;5.00;;
14603;SDS011;7388;51.078;13.740;2023-01-30T08:07:35;5.40;;;4.23;;
14603;SDS011;7388;51.078;13.740;2023-01-30T08:10:01;5.83;;;4.03;;
14603;SDS011;7388;51.078;13.740;2023-01-30T08:12:27;6.18;;;4.30;;
14603;SDS011;7388;51.078;13.740;2023-01-30T08:14:53;4.73;;;3.90;;
14603;SDS011;7388;51.078;13.740;2023-01-30T08:17:19;5.32;;;4.75;;
14603;SDS011;7388;51.078;13.740;2023-01-30T08:19:45;7.57;;;6.33;;
14603;SDS011;7388;51.078;13.740;2023-01-30T08:22:11;5.07;;;3.57;;
14603;SDS011;7388;51.078;13.740;2023-01-30T08:24:37;5.70;;;4.53;;
14603;SDS011;7388;51.078;13.740;2023-01-30T08:27:03;8.33;;;5.40;;
14603;SDS011;7388;51.078;13.740;2023-01-30T08:29:29;7.30;;;4.20;;
14603;SDS011;7388;51.078;13.740;2023-01-30T08:31:58;5.93;;;4.13;;
14603;SDS011;7388;51.078;13.740;2023-01-30T08:34:24;8.75;;;4.75;;
14603;SDS011;7388;51.078;13.740;2023-01-30T08:36:50;7.75;;;4.57;;
14603;SDS011;7388;51.078;13.740;2023-01-30T08:39:16;7.90;;;5.03;;
14603;SDS011;7388;51.078;13.740;2023-01-30T08:41:42;5.60;;;4.23;;
14603;SDS011;7388;51.078;13.740;2023-01-30T08:44:08;5.57;;;4.30;;
14603;SDS011;7388;51.078;13.740;2023-01-30T08:46:35;6.43;;;4.18;;
14603;SDS011;7388;51.078;13.740;2023-01-30T08:49:01;10.95;;;4.05;;
14603;SDS011;7388;51.078;13.740;2023-01-30T08:51:27;7.43;;;3.40;;
14603;SDS011;7388;51.078;13.740;2023-01-30T08:53:53;4.85;;;4.25;;
14603;SDS011;7388;51.078;13.740;2023-01-30T08:56:19;5.40;;;3.40;;
14603;SDS011;7388;51.078;13.740;2023-01-30T08:58:44;7.20;;;2.63;;
14603;SDS011;7388;51.078;13.740;2023-01-30T09:01:10;7.47;;;4.00;;
14603;SDS011;7388;51.078;13.740;2023-01-30T09:03:37;6.60;;;4.50;;
14603;SDS011;7388;51.078;13.740;2023-01-30T09:06:03;4.68;;;3.60;;
14603;SDS011;7388;51.078;13.740;2023-01-30T09:08:29;5.25;;;3.15;;
14603;SDS011;7388;51.078;13.740;2023-01-30T09:10:58;4.50;;;2.90;;
14603;SDS011;7388;51.078;13.740;2023-01-30T09:13:24;4.93;;;2.92;;
14603;SDS011;7388;51.078;13.740;2023-01-30T09:15:51;3.35;;;2.78;;
14603;SDS011;7388;51.078;13.740;2023-01-30T09:18:17;3.77;;;2.40;;
14603;SDS011;7388;51.078;13.740;2023-01-30T09:20:43;3.80;;;2.77;;
14603;SDS011;7388;51.078;13.740;2023-01-30T09:23:08;4.03;;;3.03;;
14603;SDS011;7388;51.078;13.740;2023-01-30T09:25:34;3.70;;;2.63;;
14603;SDS011;7388;51.078;13.740;2023-01-30T09:28:00;4.97;;;2.50;;
14603;SDS011;7388;51.078;13.740;2023-01-30T09:30:25;5.70;;;2.87;;
14603;SDS011;7388;51.078;13.740;2023-01-30T09:32:51;11.20;;;3.83;;
14603;SDS011;7388;51.078;13.740;2023-01-30T09:35:17;3.70;;;2.77;;
14603;SDS011;7388;51.078;13.740;2023-01-30T09:37:46;6.90;;;3.03;;
14603;SDS011;7388;51.078;13.740;2023-01-30T09:40:19;4.45;;;2.88;;
14603;SDS011;7388;51.078;13.740;2023-01-30T09:42:57;5.00;;;2.72;;
14603;SDS011;7388;51.078;13.740;2023-01-30T09:57:31;4.50;;;3.38;;
14603;SDS011;7388;51.078;13.740;2023-01-30T09:59:47;3.55;;;3.03;;
14603;SDS011;7388;51.078;13.740;2023-01-30T10:04:58;5.13;;;3.55;;
14603;SDS011;7388;51.078;13.740;2023-01-30T10:13:15;3.08;;;2.10;;
14603;SDS011;7388;51.078;13.740;2023-01-30T10:27:49;3.15;;;2.20;;
14603;SDS011;7388;51.078;13.740;2023-01-30T10:30:23;3.00;;;1.75;;
14603;SDS011;7388;51.078;13.740;2023-01-30T10:35:41;3.35;;;2.15;;
14603;SDS011;7388;51.078;13.740;2023-01-30T10:41:04;3.08;;;2.10;;
14603;SDS011;7388;51.078;13.740;2023-01-30T10:43:44;3.58;;;1.85;;
14603;SDS011;7388;51.078;13.740;2023-01-30T10:49:10;3.60;;;2.20;;
14603;SDS011;7388;51.078;13.740;2023-01-30T10:56:56;4.45;;;1.40;;
14603;SDS011;7388;51.078;13.740;2023-01-30T10:59:45;2.80;;;1.90;;
14603;SDS011;7388;51.078;13.740;2023-01-30T11:04:57;2.95;;;2.58;;
14603;SDS011;7388;51.078;13.740;2023-01-30T11:07:24;2.60;;;2.20;;
14603;SDS011;7388;51.078;13.740;2023-01-30T11:09:53;2.00;;;1.60;;
14603;SDS011;7388;51.078;13.740;2023-01-30T11:12:22;3.00;;;1.75;;
14603;SDS011;7388;51.078;13.740;2023-01-30T11:14:58;2.50;;;1.80;;
14603;SDS011;7388;51.078;13.740;2023-01-30T11:17:40;3.13;;;1.98;;
14603;SDS011;7388;51.078;13.740;2023-01-30T11:20:10;2.75;;;1.70;;
14603;SDS011;7388;51.078;13.740;2023-01-30T11:23:07;2.25;;;1.45;;
14603;SDS011;7388;51.078;13.740;2023-01-30T11:25:48;2.10;;;1.60;;
14603;SDS011;7388;51.078;13.740;2023-01-30T11:28:21;2.53;;;1.73;;
14603;SDS011;7388;51.078;13.740;2023-01-30T11:30:57;2.92;;;2.00;;
14603;SDS011;7388;51.078;13.740;2023-01-30T11:33:35;2.80;;;1.85;;
14603;SDS011;7388;51.078;13.740;2023-01-30T11:36:05;2.65;;;1.70;;
14603;SDS011;7388;51.078;13.740;2023-01-30T11:39:03;2.92;;;2.50;;
14603;SDS011;7388;51.078;13.740;2023-01-30T11:44:39;2.72;;;1.70;;
14603;SDS011;7388;51.078;13.740;2023-01-30T11:47:08;3.92;;;2.40;;
14603;SDS011;7388;51.078;13.740;2023-01-30T11:49:42;4.20;;;2.55;;
14603;SDS011;7388;51.078;13.740;2023-01-30T11:52:15;3.33;;;2.28;;
14603;SDS011;7388;51.078;13.740;2023-01-30T11:54:42;2.40;;;2.13;;
14603;SDS011;7388;51.078;13.740;2023-01-30T11:57:10;2.30;;;1.55;;
14603;SDS011;7388;51.078;13.740;2023-01-30T11:59:57;3.25;;;2.55;;
14603;SDS011;7388;51.078;13.740;2023-01-30T12:02:28;2.53;;;1.98;;
14603;SDS011;7388;51.078;13.740;2023-01-30T12:05:00;2.20;;;1.70;;
14603;SDS011;7388;51.078;13.740;2023-01-30T12:07:30;3.50;;;2.35;;
14603;SDS011;7388;51.078;13.740;2023-01-30T12:09:58;4.35;;;2.20;;
14603;SDS011;7388;51.078;13.740;2023-01-30T12:12:34;2.40;;;1.65;;
14603;SDS011;7388;51.078;13.740;2023-01-30T12:17:53;2.95;;;2.33;;
14603;SDS011;7388;51.078;13.740;2023-01-30T12:26:46;3.25;;;2.42;;
14603;SDS011;7388;51.078;13.740;2023-01-30T12:32:21;3.55;;;2.50;;
14603;SDS011;7388;51.078;13.740;2023-01-30T12:34:49;2.90;;;2.13;;
14603;SDS011;7388;51.078;13.740;2023-01-30T12:40:16;2.75;;;1.90;;
14603;SDS011;7388;51.078;13.740;2023-01-30T13:03:08;5.47;;;2.42;;
14603;SDS011;7388;51.078;13.740;2023-01-30T13:05:51;3.00;;;2.38;;
14603;SDS011;7388;51.078;13.740;2023-01-30T13:08:44;4.05;;;2.50;;
14603;SDS011;7388;51.078;13.740;2023-01-30T13:11:36;4.70;;;2.83;;
14603;SDS011;7388;51.078;13.740;2023-01-30T13:14:29;4.50;;;2.92;;
14603;SDS011;7388;51.078;13.740;2023-01-30T13:17:29;3.20;;;2.33;;
14603;SDS011;7388;51.078;13.740;2023-01-30T13:26:04;4.95;;;2.10;;
14603;SDS011;7388;51.078;13.740;2023-01-30T13:28:36;5.18;;;2.83;;
14603;SDS011;7388;51.078;13.740;2023-01-30T13:31:07;4.53;;;2.53;;
14603;SDS011;7388;51.078;13.740;2023-01-30T13:33:36;4.15;;;1.90;;
14603;SDS011;7388;51.078;13.740;2023-01-30T13:36:10;7.95;;;2.00;;
14603;SDS011;7388;51.078;13.740;2023-01-30T13:39:01;3.95;;;1.92;;
14603;SDS011;7388;51.078;13.740;2023-01-30T13:41:37;2.83;;;1.70;;
14603;SDS011;7388;51.078;13.740;2023-01-30T13:44:18;3.78;;;2.00;;
14603;SDS011;7388;51.078;13.740;2023-01-30T13:46:49;4.45;;;2.85;;
14603;SDS011;7388;51.078;13.740;2023-01-30T13:49:24;3.33;;;2.60;;
14603;SDS011;7388;51.078;13.740;2023-01-30T13:58:08;3.88;;;1.92;;
14603;SDS011;7388;51.078;13.740;2023-01-30T14:00:55;6.53;;;2.75;;
14603;SDS011;7388;51.078;13.740;2023-01-30T14:11:30;5.70;;;3.25;;
14603;SDS011;7388;51.078;13.740;2023-01-30T14:17:07;4.38;;;2.03;;
14603;SDS011;7388;51.078;13.740;2023-01-30T14:25:30;10.77;;;2.50;;
14603;SDS011;7388;51.078;13.740;2023-01-30T14:35:47;11.85;;;2.78;;
14603;SDS011;7388;51.078;13.740;2023-01-30T14:38:22;7.47;;;2.70;;
14603;SDS011;7388;51.078;13.740;2023-01-30T14:54:02;4.10;;;1.55;;
14603;SDS011;7388;51.078;13.740;2023-01-30T14:56:55;5.35;;;1.60;;
14603;SDS011;7388;51.078;13.740;2023-01-30T14:59:40;4.13;;;1.48;;
14603;SDS011;7388;51.078;13.740;2023-01-30T15:04:49;2.60;;;1.53;;
14603;SDS011;7388;51.078;13.740;2023-01-30T15:07:19;3.13;;;1.95;;
14603;SDS011;7388;51.078;13.740;2023-01-30T15:15:44;6.50;;;2.78;;
14603;SDS011;7388;51.078;13.740;2023-01-30T15:32:20;4.85;;;1.83;;
14603;SDS011;7388;51.078;13.740;2023-01-30T15:34:58;2.78;;;1.83;;
14603;SDS011;7388;51.078;13.740;2023-01-30T15:40:09;4.88;;;2.35;;
14603;SDS011;7388;51.078;13.740;2023-01-30T15:42:49;4.15;;;2.30;;
14603;SDS011;7388;51.078;13.740;2023-01-30T15:45:23;5.70;;;2.15;;
14603;SDS011;7388;51.078;13.740;2023-01-30T15:48:27;5.43;;;2.42;;
14603;SDS011;7388;51.078;13.740;2023-01-30T15:51:15;7.07;;;1.95;;
14603;SDS011;7388;51.078;13.740;2023-01-30T15:53:46;3.78;;;1.85;;
14603;SDS011;7388;51.078;13.740;2023-01-30T15:56:16;11.27;;;2.40;;
14603;SDS011;7388;51.078;13.740;2023-01-30T15:58:45;7.45;;;2.50;;
14603;SDS011;7388;51.078;13.740;2023-01-30T16:01:15;4.43;;;1.88;;
14603;SDS011;7388;51.078;13.740;2023-01-30T16:03:46;2.78;;;2.47;;
14603;SDS011;7388;51.078;13.740;2023-01-30T16:06:47;3.60;;;2.13;;
14603;SDS011;7388;51.078;13.740;2023-01-30T16:09:17;5.70;;;2.58;;
14603;SDS011;7388;51.078;13.740;2023-01-30T16:11:44;7.00;;;2.63;;
14603;SDS011;7388;51.078;13.740;2023-01-30T16:14:11;7.17;;;2.20;;
14603;SDS011;7388;51.078;13.740;2023-01-30T16:16:51;5.32;;;2.28;;
14603;SDS011;7388;51.078;13.740;2023-01-30T16:19:31;8.52;;;2.85;;
14603;SDS011;7388;51.078;13.740;2023-01-30T16:21:59;11.45;;;2.60;;
14603;SDS011;7388;51.078;13.740;2023-01-30T16:24:28;6.45;;;2.05;;
14603;SDS011;7388;51.078;13.740;2023-01-30T16:27:00;4.28;;;1.85;;
14603;SDS011;7388;51.078;13.740;2023-01-30T16:29:30;8.73;;;3.33;;
14603;SDS011;7388;51.078;13.740;2023-01-30T16:31:58;5.70;;;2.33;;
14603;SDS011;7388;51.078;13.740;2023-01-30T16:37:04;6.10;;;2.35;;
14603;SDS011;7388;51.078;13.740;2023-01-30T16:42:52;5.07;;;2.60;;
14603;SDS011;7388;51.078;13.740;2023-01-30T16:50:41;4.55;;;1.65;;
14603;SDS011;7388;51.078;13.740;2023-01-30T16:53:15;5.97;;;2.80;;
14603;SDS011;7388;51.078;13.740;2023-01-30T16:55:55;6.05;;;2.55;;
14603;SDS011;7388;51.078;13.740;2023-01-30T16:58:26;8.38;;;1.40;;
14603;SDS011;7388;51.078;13.740;2023-01-30T17:01:02;7.35;;;2.00;;
14603;SDS011;7388;51.078;13.740;2023-01-30T17:03:30;8.13;;;2.42;;
14603;SDS011;7388;51.078;13.740;2023-01-30T17:06:01;6.00;;;2.42;;
14603;SDS011;7388;51.078;13.740;2023-01-30T17:11:10;9.85;;;2.42;;
14603;SDS011;7388;51.078;13.740;2023-01-30T17:17:00;4.80;;;3.17;;
14603;SDS011;7388;51.078;13.740;2023-01-30T17:19:27;5.75;;;2.38;;
14603;SDS011;7388;51.078;13.740;2023-01-30T17:21:53;9.90;;;2.13;;
14603;SDS011;7388;51.078;13.740;2023-01-30T17:24:22;11.27;;;2.28;;
14603;SDS011;7388;51.078;13.740;2023-01-30T17:26:49;6.30;;;2.30;;
14603;SDS011;7388;51.078;13.740;2023-01-30T17:29:17;4.57;;;2.25;;
14603;SDS011;7388;51.078;13.740;2023-01-30T17:31:47;6.40;;;2.20;;
14603;SDS011;7388;51.078;13.740;2023-01-30T17:34:14;6.28;;;2.90;;
14603;SDS011;7388;51.078;13.740;2023-01-30T17:36:41;10.38;;;2.75;;
14603;SDS011;7388;51.078;13.740;2023-01-30T17:39:11;6.15;;;2.50;;
14603;SDS011;7388;51.078;13.740;2023-01-30T17:41:39;7.40;;;2.70;;
14603;SDS011;7388;51.078;13.740;2023-01-30T17:44:05;9.82;;;2.15;;
14603;SDS011;7388;51.078;13.740;2023-01-30T17:49:08;12.02;;;3.15;;
14603;SDS011;7388;51.078;13.740;2023-01-30T17:51:49;4.63;;;2.05;;
14603;SDS011;7388;51.078;13.740;2023-01-30T17:54:15;5.25;;;1.77;;
14603;SDS011;7388;51.078;13.740;2023-01-30T17:56:43;5.30;;;2.10;;
14603;SDS011;7388;51.078;13.740;2023-01-30T17:59:12;4.78;;;2.45;;
14603;SDS011;7388;51.078;13.740;2023-01-30T18:01:39;12.05;;;2.05;;
14603;SDS011;7388;51.078;13.740;2023-01-30T18:04:06;9.10;;;1.90;;
14603;SDS011;7388;51.078;13.740;2023-01-30T18:06:32;9.47;;;2.90;;
14603;SDS011;7388;51.078;13.740;2023-01-30T18:08:58;6.97;;;3.28;;
14603;SDS011;7388;51.078;13.740;2023-01-30T18:11:24;4.83;;;2.20;;
14603;SDS011;7388;51.078;13.740;2023-01-30T18:13:50;11.57;;;2.90;;
14603;SDS011;7388;51.078;13.740;2023-01-30T18:16:26;6.82;;;2.05;;
14603;SDS011;7388;51.078;13.740;2023-01-30T18:18:59;8.07;;;2.08;;
14603;SDS011;7388;51.078;13.740;2023-01-30T18:21:30;5.40;;;1.85;;
14603;SDS011;7388;51.078;13.740;2023-01-30T18:23:57;10.98;;;3.47;;
14603;SDS011;7388;51.078;13.740;2023-01-30T18:26:22;6.93;;;1.83;;
14603;SDS011;7388;51.078;13.740;2023-01-30T18:28:48;8.80;;;3.95;;
14603;SDS011;7388;51.078;13.740;2023-01-30T18:31:14;6.20;;;1.30;;
14603;SDS011;7388;51.078;13.740;2023-01-30T18:33:41;5.60;;;2.00;;
14603;SDS011;7388;51.078;13.740;2023-01-30T18:36:09;3.78;;;1.63;;
14603;SDS011;7388;51.078;13.740;2023-01-30T18:38:37;2.60;;;1.60;;